Time,TemperatureF,DewpointF,PressureIn,WindDirection,WindDirectionDegrees,WindSpeedMPH,WindSpeedGustMPH,Humidity,HourlyPrecipIn,Conditions,Clouds,dailyrainin,SolarRadiationWatts/m^2,SoftwareType,DateUTC
2013-01-03 00:00:00,15.0,5.0,-100.00,SW,225,7.0,-999.0,62,-99.99,,,-99.99,0.000000,,2013-01-03 05:00:00,
2013-01-03 00:33:00,15.0,5.0,-100.00,SW,225,7.0,-999.0,62,-99.99,,,-99.99,0.000000,,2013-01-03 05:33:00,
2013-01-03 00:42:00,15.0,5.0,-100.00,SW,225,7.0,-999.0,62,-99.99,,,-99.99,0.000000,,2013-01-03 05:42:00,
2013-01-03 00:53:00,15.0,5.0,-100.00,SW,225,7.0,-999.0,62,-99.99,,,-99.99,0.000000,,2013-01-03 05:53:00,
2013-01-03 01:00:00,15.0,4.0,-100.00,SW,225,7.0,-999.0,62,-99.99,,,-99.99,0.000000,,2013-01-03 06:00:00,
2013-01-03 01:33:00,15.0,4.0,-100.00,SW,225,7.0,-999.0,62,-99.99,,,-99.99,0.000000,,2013-01-03 06:33:00,
2013-01-03 01:42:00,15.0,4.0,-100.00,SW,225,7.0,-999.0,62,-99.99,,,-99.99,0.000000,,2013-01-03 06:42:00,
2013-01-03 01:53:00,15.0,4.0,-100.00,SW,225,7.0,-999.0,62,-99.99,,,-99.99,0.000000,,2013-01-03 06:53:00,
2013-01-03 02:00:00,14.0,4.0,-100.00,SW,225,6.0,-999.0,63,-99.99,,,-99.99,0.000000,,2013-01-03 07:00:00,
2013-01-03 02:43:00,14.0,4.0,-100.00,SW,225,6.0,-999.0,63,-99.99,,,-99.99,0.000000,,2013-01-03 07:43:00,
2013-01-03 02:53:00,14.0,4.0,-100.00,SW,225,6.0,-999.0,63,-99.99,,,-99.99,0.000000,,2013-01-03 07:53:00,
2013-01-03 03:00:00,16.0,6.0,-100.00,SW,225,6.0,-999.0,64,-99.99,,,-99.99,0.000000,,2013-01-03 08:00:00,
2013-01-03 03:43:00,16.0,6.0,-100.00,SW,225,6.0,-999.0,64,-99.99,,,-99.99,0.000000,,2013-01-03 08:43:00,
2013-01-03 03:53:00,16.0,6.0,-100.00,SW,225,6.0,-999.0,64,-99.99,,,-99.99,0.000000,,2013-01-03 08:53:00,
2013-01-03 04:00:00,17.0,8.0,-100.00,SW,225,8.0,-999.0,65,-99.99,,,-99.99,0.000000,,2013-01-03 09:00:00,
2013-01-03 04:34:00,17.0,8.0,-100.00,SW,225,8.0,-999.0,65,-99.99,,,-99.99,0.000000,,2013-01-03 09:34:00,
2013-01-03 04:43:00,17.0,8.0,-100.00,SW,225,8.0,-999.0,65,-99.99,,,-99.99,0.000000,,2013-01-03 09:43:00,
2013-01-03 04:53:00,17.0,8.0,-100.00,SW,225,8.0,-999.0,65,-99.99,,,-99.99,0.000000,,2013-01-03 09:53:00,
2013-01-03 05:00:00,18.0,9.0,-100.00,SW,225,8.0,-999.0,67,-99.99,,,-99.99,0.000000,,2013-01-03 10:00:00,
2013-01-03 05:43:00,18.0,9.0,-100.00,SW,225,8.0,-999.0,67,-99.99,,,-99.99,0.000000,,2013-01-03 10:43:00,
2013-01-03 05:53:00,18.0,9.0,-100.00,SW,225,8.0,-999.0,67,-99.99,,,-99.99,0.000000,,2013-01-03 10:53:00,
2013-01-03 06:00:00,19.0,11.0,-100.00,SW,225,8.0,-999.0,70,-99.99,,,-99.99,0.000000,,2013-01-03 11:00:00,
2013-01-03 06:43:00,19.0,11.0,-100.00,SW,225,8.0,-999.0,70,-99.99,,,-99.99,0.000000,,2013-01-03 11:43:00,
2013-01-03 06:53:00,19.0,11.0,-100.00,SW,225,8.0,-999.0,70,-99.99,,,-99.99,0.000000,,2013-01-03 11:53:00,
2013-01-03 08:00:00,21.0,15.0,-100.00,WSW,247,7.0,-999.0,75,-99.99,,,-99.99,0.000000,,2013-01-03 13:00:00,
2013-01-03 08:43:00,21.0,15.0,-100.00,WSW,247,7.0,-999.0,75,-99.99,,,-99.99,0.000000,,2013-01-03 13:43:00,
2013-01-03 08:53:00,21.0,15.0,-100.00,WSW,247,7.0,-999.0,75,-99.99,,,-99.99,0.000000,,2013-01-03 13:53:00,
2013-01-03 09:00:00,23.0,17.0,-100.00,WSW,247,6.0,-999.0,78,-99.99,,,-99.99,2.320000,,2013-01-03 14:00:00,
2013-01-03 09:33:00,23.0,17.0,-100.00,WSW,247,6.0,-999.0,78,-99.99,,,-99.99,2.320000,,2013-01-03 14:33:00,
2013-01-03 09:43:00,23.0,17.0,-100.00,WSW,247,6.0,-999.0,78,-99.99,,,-99.99,2.320000,,2013-01-03 14:43:00,
2013-01-03 09:53:00,23.0,17.0,-100.00,WSW,247,6.0,-999.0,78,-99.99,,,-99.99,2.320000,,2013-01-03 14:53:00,
2013-01-03 10:00:00,27.0,22.0,-100.00,WSW,247,8.0,-999.0,80,-99.99,,,-99.99,10.440000,,2013-01-03 15:00:00,
2013-01-03 10:34:00,27.0,22.0,-100.00,WSW,247,8.0,-999.0,80,-99.99,,,-99.99,10.440000,,2013-01-03 15:34:00,
2013-01-03 10:43:00,27.0,22.0,-100.00,WSW,247,8.0,-999.0,80,-99.99,,,-99.99,10.440000,,2013-01-03 15:43:00,
2013-01-03 10:53:00,27.0,22.0,-100.00,WSW,247,8.0,-999.0,80,-99.99,,,-99.99,10.440000,,2013-01-03 15:53:00,
2013-01-03 11:00:00,30.0,23.0,-100.00,SW,225,13.0,-999.0,75,-99.99,,,-99.99,24.360001,,2013-01-03 16:00:00,
2013-01-03 11:34:00,30.0,23.0,-100.00,SW,225,13.0,-999.0,75,-99.99,,,-99.99,24.360001,,2013-01-03 16:34:00,
2013-01-03 11:43:00,30.0,23.0,-100.00,SW,225,13.0,-999.0,75,-99.99,,,-99.99,24.360001,,2013-01-03 16:43:00,
2013-01-03 11:53:00,30.0,23.0,-100.00,SW,225,13.0,-999.0,75,-99.99,,,-99.99,24.360001,,2013-01-03 16:53:00,
2013-01-03 12:00:00,30.0,23.0,-100.00,SSW,202,14.0,-999.0,75,-99.99,,,-99.99,45.240002,,2013-01-03 17:00:00,
2013-01-03 12:43:00,30.0,23.0,-100.00,SSW,202,14.0,-999.0,75,-99.99,,,-99.99,45.240002,,2013-01-03 17:43:00,
2013-01-03 12:53:00,30.0,23.0,-100.00,SSW,202,14.0,-999.0,75,-99.99,,,-99.99,45.240002,,2013-01-03 17:53:00,
2013-01-03 13:00:00,30.0,23.0,-100.00,SSW,202,14.0,-999.0,74,-99.99,,,-99.99,67.279999,,2013-01-03 18:00:00,
2013-01-03 13:43:00,30.0,23.0,-100.00,SSW,202,14.0,-999.0,74,-99.99,,,-99.99,67.279999,,2013-01-03 18:43:00,
2013-01-03 13:53:00,30.0,23.0,-100.00,SSW,202,14.0,-999.0,74,-99.99,,,-99.99,67.279999,,2013-01-03 18:53:00,
2013-01-03 15:00:00,30.0,21.0,-100.00,South,180,14.0,-999.0,68,-99.99,,,-99.99,41.759998,,2013-01-03 20:00:00,
2013-01-03 15:43:00,30.0,21.0,-100.00,South,180,14.0,-999.0,68,-99.99,,,-99.99,41.759998,,2013-01-03 20:43:00,
2013-01-03 15:53:00,30.0,21.0,-100.00,South,180,14.0,-999.0,68,-99.99,,,-99.99,41.759998,,2013-01-03 20:53:00,
2013-01-03 16:00:00,30.0,21.0,-100.00,South,180,13.0,-999.0,70,-99.99,,,-99.99,20.879999,,2013-01-03 21:00:00,
2013-01-03 16:50:00,30.0,21.0,-100.00,South,180,13.0,-999.0,70,-99.99,,,-99.99,20.879999,,2013-01-03 21:50:00,
2013-01-03 17:00:00,30.0,21.0,-100.00,South,180,12.0,-999.0,71,-99.99,,,-99.99,8.120000,,2013-01-03 22:00:00,
2013-01-03 17:43:00,30.0,21.0,-100.00,South,180,12.0,-999.0,71,-99.99,,,-99.99,8.120000,,2013-01-03 22:43:00,
2013-01-03 17:53:00,30.0,21.0,-100.00,South,180,12.0,-999.0,71,-99.99,,,-99.99,8.120000,,2013-01-03 22:53:00,
2013-01-03 18:00:00,30.0,21.0,-100.00,SSE,157,11.0,-999.0,71,-99.99,,,-99.99,1.160000,,2013-01-03 23:00:00,
2013-01-03 18:43:00,30.0,21.0,-100.00,SSE,157,11.0,-999.0,71,-99.99,,,-99.99,1.160000,,2013-01-03 23:43:00,
2013-01-03 18:53:00,30.0,21.0,-100.00,SSE,157,11.0,-999.0,71,-99.99,,,-99.99,1.160000,,2013-01-03 23:53:00,
2013-01-03 19:00:00,30.0,22.0,-100.00,SSE,157,11.0,-999.0,72,-99.99,,,-99.99,0.000000,,2013-01-04 00:00:00,
2013-01-03 19:42:00,30.0,22.0,-100.00,SSE,157,11.0,-999.0,72,-99.99,,,-99.99,0.000000,,2013-01-04 00:42:00,
2013-01-03 19:53:00,30.0,22.0,-100.00,SSE,157,11.0,-999.0,72,-99.99,,,-99.99,0.000000,,2013-01-04 00:53:00,
2013-01-03 20:00:00,29.0,22.0,-100.00,SSE,157,10.0,-999.0,74,-99.99,,,-99.99,0.000000,,2013-01-04 01:00:00,
2013-01-03 20:42:00,29.0,22.0,-100.00,SSE,157,10.0,-999.0,74,-99.99,,,-99.99,0.000000,,2013-01-04 01:42:00,
2013-01-03 20:52:00,29.0,22.0,-100.00,SSE,157,10.0,-999.0,74,-99.99,,,-99.99,0.000000,,2013-01-04 01:52:00,
2013-01-03 21:00:00,29.0,22.0,-100.00,SSE,157,10.0,-999.0,74,-99.99,,,-99.99,0.000000,,2013-01-04 02:00:00,
2013-01-03 21:33:00,29.0,22.0,-100.00,SSE,157,10.0,-999.0,74,-99.99,,,-99.99,0.000000,,2013-01-04 02:33:00,
2013-01-03 21:42:00,29.0,22.0,-100.00,SSE,157,10.0,-999.0,74,-99.99,,,-99.99,0.000000,,2013-01-04 02:42:00,
2013-01-03 21:53:00,29.0,22.0,-100.00,SSE,157,10.0,-999.0,74,-99.99,,,-99.99,0.000000,,2013-01-04 02:53:00,
2013-01-03 22:00:00,29.0,22.0,-100.00,SSE,157,11.0,-999.0,74,-99.99,,,-99.99,0.000000,,2013-01-04 03:00:00,
2013-01-03 22:33:00,29.0,22.0,-100.00,SSE,157,11.0,-999.0,74,-99.99,,,-99.99,0.000000,,2013-01-04 03:33:00,
2013-01-03 22:43:00,29.0,22.0,-100.00,SSE,157,11.0,-999.0,74,-99.99,,,-99.99,0.000000,,2013-01-04 03:43:00,
2013-01-03 22:53:00,29.0,22.0,-100.00,SSE,157,11.0,-999.0,74,-99.99,,,-99.99,0.000000,,2013-01-04 03:53:00,
2013-01-03 23:00:00,29.0,22.0,-100.00,South,180,11.0,-999.0,74,-99.99,,,-99.99,0.000000,,2013-01-04 04:00:00,
2013-01-03 23:32:00,29.0,22.0,-100.00,South,180,11.0,-999.0,74,-99.99,,,-99.99,0.000000,,2013-01-04 04:32:00,
2013-01-03 23:42:00,29.0,22.0,-100.00,South,180,11.0,-999.0,74,-99.99,,,-99.99,0.000000,,2013-01-04 04:42:00,
2013-01-03 23:52:00,29.0,22.0,-100.00,South,180,11.0,-999.0,74,-99.99,,,-99.99,0.000000,,2013-01-04 04:52:00,